Time;durP1;ratioP1;P1;durP2;ratioP2;P2;SDS_P1;SDS_P2;PMS_P1;PMS_P2;Temp;Humidity;BMP_temperature;BMP_pressure;BME280_temperature;BME280_humidity;BME280_pressure;Samples;Min_cycle;Max_cycle;Signal;HPM_P1;HPM_P2
2023/12/09 00:01:41;;;;;;;0.47;0.47;;;9.20;99.90;;;;;;5023424;28;20063;-79
2023/12/09 00:04:07;;;;;;;3.00;0.88;;;9.30;99.90;;;;;;5012115;28;20227;-80
2023/12/09 00:06:32;;;;;;;3.88;0.65;;;9.20;99.90;;;;;;5029866;28;20033;-79
2023/12/09 00:08:58;;;;;;;4.05;1.27;;;9.30;99.90;;;;;;5020431;28;20060;-78
2023/12/09 00:11:23;;;;;;;3.97;0.52;;;9.40;99.90;;;;;;5028008;28;20029;-77
2023/12/09 00:13:49;;;;;;;2.08;0.63;;;9.40;99.90;;;;;;5026889;28;20029;-75
2023/12/09 00:16:15;;;;;;;6.35;0.88;;;9.50;99.90;;;;;;5013607;28;20067;-76
2023/12/09 00:18:41;;;;;;;8.43;1.20;;;9.60;99.90;;;;;;5027085;28;20041;-75
2023/12/09 00:21:06;;;;;;;7.35;0.82;;;9.60;99.90;;;;;;5013115;28;20105;-75
2023/12/09 00:23:32;;;;;;;1.38;0.20;;;9.60;99.90;;;;;;5025712;28;20100;-75
2023/12/09 00:25:58;;;;;;;9.93;1.02;;;9.50;99.90;;;;;;5015734;28;20078;-75
2023/12/09 00:28:23;;;;;;;0.85;0.70;;;9.50;99.90;;;;;;5027663;28;20060;-75
2023/12/09 00:30:49;;;;;;;7.68;1.15;;;9.60;99.90;;;;;;5012365;28;20048;-75
2023/12/09 00:33:15;;;;;;;2.80;0.52;;;9.60;99.90;;;;;;5027710;28;20491;-75
2023/12/09 00:35:40;;;;;;;1.45;0.75;;;9.70;99.90;;;;;;5013996;28;20847;-75
2023/12/09 00:38:06;;;;;;;4.65;0.90;;;9.60;99.90;;;;;;5022779;28;20029;-75
2023/12/09 00:40:32;;;;;;;1.77;0.68;;;9.60;99.90;;;;;;5013340;28;20128;-75
2023/12/09 00:42:57;;;;;;;2.63;0.50;;;9.60;99.90;;;;;;5020195;28;20041;-75
2023/12/09 00:45:25;;;;;;;1.85;0.88;;;9.60;99.90;;;;;;5016939;28;20065;-75
2023/12/09 00:47:51;;;;;;;4.45;0.85;;;9.60;99.90;;;;;;5025980;28;20124;-74
2023/12/09 00:50:16;;;;;;;4.10;0.85;;;9.60;99.90;;;;;;5019741;28;20050;-74
2023/12/09 00:52:42;;;;;;;6.90;2.30;;;9.60;99.90;;;;;;5013005;28;20037;-74
2023/12/09 00:55:08;;;;;;;13.15;1.55;;;9.70;99.90;;;;;;5028123;28;20040;-74
2023/12/09 00:57:33;;;;;;;8.93;1.25;;;9.80;99.90;;;;;;5016285;28;20021;-74
2023/12/09 00:59:59;;;;;;;4.57;1.13;;;9.80;99.90;;;;;;5026131;28;20049;-73
2023/12/09 01:02:25;;;;;;;7.68;1.02;;;9.80;99.90;;;;;;5012626;28;20504;-74
2023/12/09 01:04:50;;;;;;;9.38;1.15;;;9.80;99.90;;;;;;5030801;28;20033;-74
2023/12/09 01:07:16;;;;;;;7.32;1.95;;;9.80;99.90;;;;;;5019969;28;20037;-74
2023/12/09 01:09:42;;;;;;;12.45;1.13;;;9.80;99.90;;;;;;5024074;28;20401;-73
2023/12/09 01:12:07;;;;;;;3.85;1.52;;;9.80;99.90;;;;;;5012835;28;20033;-73
2023/12/09 01:14:33;;;;;;;4.05;1.95;;;9.80;99.90;;;;;;5030359;28;20029;-74
2023/12/09 01:16:58;;;;;;;11.85;1.50;;;9.90;99.90;;;;;;5014830;28;20098;-73
2023/12/09 01:19:24;;;;;;;7.55;1.00;;;9.90;99.90;;;;;;5029125;28;20064;-73
2023/12/09 01:21:50;;;;;;;3.97;1.45;;;9.90;99.90;;;;;;5017910;28;20288;-74
2023/12/09 01:24:16;;;;;;;8.13;0.90;;;9.80;99.90;;;;;;5026414;28;20029;-73
2023/12/09 01:26:42;;;;;;;5.78;0.68;;;9.80;99.90;;;;;;5021398;28;20398;-74
2023/12/09 01:29:07;;;;;;;5.85;0.68;;;9.90;99.90;;;;;;5023718;28;20044;-73
2023/12/09 01:31:33;;;;;;;2.17;0.77;;;10.00;99.90;;;;;;5029233;28;20557;-74
2023/12/09 01:33:58;;;;;;;7.38;0.70;;;10.00;99.90;;;;;;5016403;28;20037;-74
2023/12/09 01:36:24;;;;;;;7.28;1.17;;;10.00;99.90;;;;;;5026647;28;20048;-73
2023/12/09 01:38:50;;;;;;;1.98;1.35;;;10.00;99.90;;;;;;5017857;28;20041;-73
2023/12/09 01:41:15;;;;;;;2.08;0.32;;;10.00;99.90;;;;;;5030829;28;20122;-74
2023/12/09 01:43:42;;;;;;;5.68;0.45;;;10.00;99.90;;;;;;5013662;28;20132;-73
2023/12/09 01:46:11;;;;;;;0.40;0.35;;;10.00;99.90;;;;;;5031810;28;20032;-73
2023/12/09 01:48:37;;;;;;;10.48;1.13;;;10.00;99.90;;;;;;5018144;28;20642;-73
2023/12/09 01:51:04;;;;;;;6.45;0.75;;;10.10;99.90;;;;;;5023710;28;20053;-73
2023/12/09 01:53:31;;;;;;;6.80;1.05;;;10.10;99.90;;;;;;5016631;28;20555;-73
2023/12/09 01:55:59;;;;;;;6.07;0.38;;;10.10;99.90;;;;;;5026008;28;20450;-73
2023/12/09 01:58:26;;;;;;;3.00;1.03;;;10.10;99.90;;;;;;5018609;28;20037;-74
2023/12/09 02:00:53;;;;;;;6.13;0.52;;;10.10;99.90;;;;;;5030754;28;20270;-73
2023/12/09 02:03:18;;;;;;;6.18;1.30;;;10.10;99.90;;;;;;5011062;28;20111;-73
2023/12/09 02:05:44;;;;;;;14.32;1.33;;;10.00;99.90;;;;;;5028669;28;20501;-73
2023/12/09 02:08:10;;;;;;;1.60;0.43;;;10.00;99.90;;;;;;5015699;28;20409;-73
2023/12/09 02:10:36;;;;;;;10.63;1.27;;;10.10;99.90;;;;;;5023103;28;20057;-73
2023/12/09 02:13:23;;;;;;;3.78;0.40;;;10.00;99.90;;;;;;5024146;28;20052;-73
2023/12/09 02:16:04;;;;;;;0.70;0.55;;;10.00;99.90;;;;;;5029022;28;20115;-73
2023/12/09 02:18:30;;;;;;;1.05;0.50;;;10.00;99.90;;;;;;5019655;28;20094;-73
2023/12/09 02:20:56;;;;;;;12.77;1.17;;;10.00;99.90;;;;;;5028524;28;20033;-73
2023/12/09 02:23:22;;;;;;;1.40;0.88;;;9.90;99.90;;;;;;5024720;28;20086;-72
2023/12/09 02:25:52;;;;;;;2.25;0.40;;;9.90;99.90;;;;;;5020197;28;20513;-73
2023/12/09 02:28:23;;;;;;;15.60;1.15;;;9.90;99.90;;;;;;5053397;28;20029;-73
2023/12/09 02:30:54;;;;;;;9.98;1.02;;;9.90;99.90;;;;;;5027665;28;20036;-73
2023/12/09 02:33:21;;;;;;;1.05;0.68;;;9.90;99.90;;;;;;5029346;28;20046;-73
2023/12/09 02:35:50;;;;;;;8.70;1.67;;;9.90;99.90;;;;;;5018687;28;20036;-73
2023/12/09 02:38:18;;;;;;;1.15;0.63;;;9.90;99.90;;;;;;5027647;28;20037;-73
2023/12/09 02:40:45;;;;;;;2.75;0.55;;;9.90;99.90;;;;;;5017698;28;20397;-74
2023/12/09 02:43:12;;;;;;;13.05;1.02;;;9.90;99.90;;;;;;5027996;28;20074;-74
2023/12/09 02:45:38;;;;;;;4.95;1.25;;;9.90;99.90;;;;;;5017709;28;20026;-74
2023/12/09 02:48:04;;;;;;;4.60;1.10;;;10.00;99.90;;;;;;5028292;28;20083;-74
2023/12/09 02:50:30;;;;;;;7.78;1.00;;;9.90;99.90;;;;;;5008361;28;20675;-73
2023/12/09 02:52:56;;;;;;;7.40;1.20;;;9.90;99.90;;;;;;5027022;28;20033;-73
2023/12/09 02:55:22;;;;;;;6.90;0.68;;;9.90;99.90;;;;;;5018413;28;20047;-74
2023/12/09 02:57:47;;;;;;;18.40;1.05;;;9.90;99.90;;;;;;5028489;28;20029;-73
2023/12/09 03:00:13;;;;;;;8.27;0.60;;;9.90;99.90;;;;;;5013819;28;20594;-74
2023/12/09 03:02:39;;;;;;;2.42;0.80;;;10.00;99.90;;;;;;5022419;28;20401;-74
2023/12/09 03:05:05;;;;;;;15.25;2.22;;;10.00;99.90;;;;;;5013911;28;20039;-74
2023/12/09 03:07:31;;;;;;;3.72;1.67;;;9.90;99.90;;;;;;5023555;28;20147;-74
2023/12/09 03:09:56;;;;;;;8.13;2.10;;;9.90;99.90;;;;;;5021922;28;20179;-74
2023/12/09 03:12:22;;;;;;;8.73;1.08;;;9.90;99.90;;;;;;5018656;28;20432;-74
2023/12/09 03:14:47;;;;;;;12.00;2.05;;;9.90;99.90;;;;;;5022853;28;20313;-74
2023/12/09 03:17:13;;;;;;;5.30;1.17;;;9.90;99.90;;;;;;5012435;28;20305;-74
2023/12/09 03:19:39;;;;;;;4.40;1.33;;;9.90;99.90;;;;;;5027412;28;20036;-74
2023/12/09 03:22:04;;;;;;;8.95;1.42;;;10.00;99.90;;;;;;5012111;28;20127;-75
2023/12/09 03:24:30;;;;;;;7.00;1.13;;;10.00;99.90;;;;;;5020316;28;20048;-74
2023/12/09 03:26:56;;;;;;;7.15;0.95;;;10.00;99.90;;;;;;5012927;28;20032;-76
2023/12/09 03:29:22;;;;;;;8.70;1.25;;;10.10;99.90;;;;;;5024335;28;20022;-75
2023/12/09 03:31:48;;;;;;;1.45;0.47;;;10.20;99.90;;;;;;5012169;28;20037;-75
2023/12/09 03:34:15;;;;;;;1.80;1.15;;;10.20;99.90;;;;;;5027471;28;20060;-76
2023/12/09 03:36:41;;;;;;;3.60;1.02;;;10.20;99.90;;;;;;5016164;28;20425;-75
2023/12/09 03:39:09;;;;;;;15.45;1.25;;;10.20;99.90;;;;;;5028262;28;20499;-76
2023/12/09 03:41:34;;;;;;;6.70;1.35;;;10.20;99.90;;;;;;5016887;28;20045;-77
2023/12/09 03:44:01;;;;;;;6.50;0.75;;;10.20;99.90;;;;;;5022026;28;20041;-76
2023/12/09 03:46:26;;;;;;;11.50;1.70;;;10.10;99.90;;;;;;5020727;28;20610;-76
2023/12/09 03:48:52;;;;;;;9.35;1.83;;;10.10;99.90;;;;;;5028508;28;20025;-76
2023/12/09 03:51:17;;;;;;;8.35;0.80;;;10.00;99.90;;;;;;5021754;28;20057;-77
2023/12/09 03:53:43;;;;;;;10.77;1.45;;;10.10;99.90;;;;;;5021223;28;20045;-77
2023/12/09 03:56:11;;;;;;;2.28;1.38;;;10.10;99.90;;;;;;5027679;28;20037;-78
2023/12/09 03:58:37;;;;;;;9.75;1.20;;;10.10;99.90;;;;;;5016179;28;20481;-77
2023/12/09 04:01:04;;;;;;;9.02;2.05;;;10.10;99.90;;;;;;5025079;28;20033;-77
2023/12/09 04:03:30;;;;;;;6.22;1.05;;;10.10;99.90;;;;;;5018842;28;20041;-75
2023/12/09 04:05:56;;;;;;;11.30;1.60;;;10.10;99.90;;;;;;5029697;28;20040;-76
2023/12/09 04:08:21;;;;;;;11.00;1.40;;;10.10;99.90;;;;;;5021895;28;20036;-76
2023/12/09 04:10:47;;;;;;;12.10;1.85;;;10.10;99.90;;;;;;5025655;28;20029;-76
2023/12/09 04:13:13;;;;;;;1.95;1.08;;;10.10;99.90;;;;;;5014830;28;20045;-75
2023/12/09 04:15:38;;;;;;;13.73;2.08;;;10.10;99.90;;;;;;5026049;28;20147;-78
2023/12/09 04:18:05;;;;;;;10.05;2.20;;;10.10;99.90;;;;;;5011600;28;20037;-77
2023/12/09 04:20:31;;;;;;;0.50;0.50;;;10.00;99.90;;;;;;5028911;28;20087;-77
2023/12/09 04:22:56;;;;;;;9.15;1.98;;;10.00;99.90;;;;;;5014304;28;20559;-76
2023/12/09 04:25:22;;;;;;;12.70;1.90;;;10.00;99.90;;;;;;5026718;28;20033;-78
2023/12/09 04:27:48;;;;;;;12.73;1.13;;;10.00;99.90;;;;;;5019400;28;20409;-78
2023/12/09 04:30:14;;;;;;;3.67;1.38;;;10.10;99.90;;;;;;5026569;28;20139;-77
2023/12/09 04:32:41;;;;;;;10.15;2.25;;;10.10;99.90;;;;;;5023123;28;20244;-77
2023/12/09 04:35:08;;;;;;;13.02;1.30;;;10.10;99.90;;;;;;5025228;28;20038;-76
2023/12/09 04:37:34;;;;;;;13.85;1.77;;;10.00;99.90;;;;;;5025535;28;20064;-76
2023/12/09 04:40:00;;;;;;;2.45;0.80;;;10.00;99.90;;;;;;5019226;28;20136;-76
2023/12/09 04:42:27;;;;;;;8.45;1.80;;;10.00;99.90;;;;;;5027040;28;20059;-75
2023/12/09 04:44:53;;;;;;;7.35;1.00;;;9.90;99.90;;;;;;5014010;28;20025;-75
2023/12/09 04:47:19;;;;;;;7.53;0.60;;;9.90;99.90;;;;;;5026842;28;20501;-76
2023/12/09 04:49:45;;;;;;;10.63;0.80;;;9.80;99.90;;;;;;5021731;28;21095;-77
2023/12/09 04:52:11;;;;;;;5.18;0.80;;;9.80;99.90;;;;;;5025457;28;20029;-76
2023/12/09 04:54:36;;;;;;;7.70;0.68;;;9.80;99.90;;;;;;5023739;28;20072;-76
2023/12/09 04:57:02;;;;;;;3.10;0.85;;;9.80;99.90;;;;;;5030044;28;21688;-77
2023/12/09 04:59:28;;;;;;;0.75;0.40;;;9.80;99.90;;;;;;5019946;28;20400;-78
2023/12/09 05:01:54;;;;;;;7.40;0.65;;;9.80;99.90;;;;;;5027957;28;20048;-79
2023/12/09 05:04:19;;;;;;;12.95;1.77;;;9.80;99.90;;;;;;5014810;28;20037;-78
2023/12/09 05:06:45;;;;;;;10.32;1.25;;;9.90;99.90;;;;;;5025750;28;20040;-77
2023/12/09 05:09:13;;;;;;;6.53;1.23;;;9.90;99.90;;;;;;5021260;28;20028;-76
2023/12/09 05:11:39;;;;;;;9.07;1.30;;;9.90;99.90;;;;;;5031756;28;20032;-77
2023/12/09 05:14:05;;;;;;;11.57;1.42;;;9.90;99.90;;;;;;5036317;28;20160;-77
2023/12/09 05:16:32;;;;;;;6.72;0.90;;;9.90;99.90;;;;;;5023835;28;20038;-77
2023/12/09 05:18:58;;;;;;;2.97;0.43;;;9.90;99.90;;;;;;5048269;28;20060;-77
2023/12/09 05:21:24;;;;;;;9.65;2.58;;;9.90;99.90;;;;;;5018720;28;20045;-78
2023/12/09 05:23:50;;;;;;;3.33;0.93;;;9.90;99.90;;;;;;5025352;28;20086;-76
2023/12/09 05:26:24;;;;;;;3.75;1.20;;;9.90;99.90;;;;;;5017083;28;20033;-77
2023/12/09 05:28:51;;;;;;;8.25;1.20;;;9.90;99.90;;;;;;5025869;28;20116;-77
2023/12/09 05:31:17;;;;;;;9.80;1.10;;;9.90;99.90;;;;;;5008426;28;20122;-77
2023/12/09 05:33:43;;;;;;;17.98;3.33;;;10.00;99.90;;;;;;5025406;28;20026;-77
2023/12/09 05:36:09;;;;;;;2.70;1.92;;;10.00;99.90;;;;;;5022164;28;20041;-77
2023/12/09 05:38:35;;;;;;;8.65;1.63;;;9.90;99.90;;;;;;5025629;28;20521;-78
2023/12/09 05:41:01;;;;;;;5.68;1.42;;;9.90;99.90;;;;;;5016556;28;20044;-77
2023/12/09 05:43:26;;;;;;;9.35;2.08;;;9.90;99.90;;;;;;5027167;28;20037;-78
2023/12/09 05:45:52;;;;;;;12.15;1.40;;;10.00;99.90;;;;;;5019108;28;20025;-79
2023/12/09 05:48:18;;;;;;;13.75;1.80;;;10.00;99.90;;;;;;5030510;28;20040;-77
2023/12/09 05:50:44;;;;;;;4.43;1.50;;;10.00;99.90;;;;;;5018274;28;20238;-78
2023/12/09 05:53:10;;;;;;;9.75;1.65;;;10.10;99.90;;;;;;5030550;28;20045;-79
2023/12/09 05:55:36;;;;;;;4.68;1.77;;;10.10;99.90;;;;;;5025509;28;20030;-77
2023/12/09 05:58:02;;;;;;;7.03;1.42;;;10.10;99.90;;;;;;5021391;28;20065;-78
2023/12/09 06:00:28;;;;;;;5.15;1.30;;;10.10;99.90;;;;;;5033361;28;21489;-77
2023/12/09 06:02:54;;;;;;;14.35;1.38;;;10.10;99.90;;;;;;5017321;28;20742;-78
2023/12/09 06:05:20;;;;;;;10.43;0.73;;;10.10;99.90;;;;;;5028422;28;20029;-79
2023/12/09 06:07:45;;;;;;;13.02;0.88;;;10.20;99.90;;;;;;5021898;28;20035;-78
2023/12/09 06:10:11;;;;;;;19.75;1.67;;;10.20;99.90;;;;;;5027466;28;20021;-79
2023/12/09 06:12:37;;;;;;;7.35;2.28;;;10.10;99.90;;;;;;5018910;28;20041;-78
2023/12/09 06:15:04;;;;;;;15.98;2.28;;;10.10;99.90;;;;;;5031236;28;20036;-76
2023/12/09 06:17:30;;;;;;;3.55;1.08;;;10.10;99.90;;;;;;5013828;28;20029;-77
2023/12/09 06:19:55;;;;;;;3.05;0.70;;;10.10;99.90;;;;;;5032291;28;20037;-80
2023/12/09 06:22:21;;;;;;;12.30;1.95;;;10.10;99.90;;;;;;5019952;28;20029;-78
2023/12/09 06:24:47;;;;;;;2.03;0.60;;;10.10;99.90;;;;;;5026847;28;20033;-77
2023/12/09 06:27:13;;;;;;;3.50;1.05;;;10.10;99.90;;;;;;5018699;28;20025;-77
2023/12/09 06:29:38;;;;;;;9.15;1.35;;;10.10;99.90;;;;;;5029601;28;20083;-77
2023/12/09 06:32:05;;;;;;;8.95;1.75;;;10.10;99.90;;;;;;5010760;28;20105;-78
2023/12/09 06:34:30;;;;;;;4.75;0.57;;;10.10;99.90;;;;;;5028735;28;20033;-77
2023/12/09 06:36:56;;;;;;;2.47;0.88;;;10.10;99.90;;;;;;5028014;28;20563;-75
2023/12/09 06:39:22;;;;;;;9.95;1.92;;;10.10;99.90;;;;;;5023234;28;20075;-78
2023/12/09 06:41:48;;;;;;;4.72;1.70;;;10.10;99.90;;;;;;5029650;28;20044;-78
2023/12/09 06:44:14;;;;;;;2.28;1.10;;;10.10;99.90;;;;;;5016778;28;20037;-77
2023/12/09 06:46:40;;;;;;;9.75;0.90;;;10.10;99.90;;;;;;5048444;28;20025;-77
2023/12/09 06:49:06;;;;;;;8.65;1.08;;;10.20;99.90;;;;;;5048168;28;20053;-77
2023/12/09 06:51:32;;;;;;;3.97;1.20;;;10.10;99.90;;;;;;5053379;28;20050;-78
2023/12/09 06:53:57;;;;;;;5.78;0.98;;;10.10;99.90;;;;;;5048230;28;20041;-77
2023/12/09 06:56:23;;;;;;;7.88;1.00;;;10.10;99.90;;;;;;5058230;28;20014;-78
2023/12/09 06:58:49;;;;;;;2.15;1.08;;;10.10;99.90;;;;;;5044630;28;20033;-78
2023/12/09 07:01:20;;;;;;;6.97;0.65;;;10.10;99.90;;;;;;5054920;28;20043;-76
2023/12/09 07:03:45;;;;;;;11.70;1.02;;;10.20;99.90;;;;;;5023022;28;20554;-76
2023/12/09 07:06:11;;;;;;;7.53;0.80;;;10.20;99.90;;;;;;5032220;28;20034;-79
2023/12/09 07:08:36;;;;;;;9.25;1.15;;;10.20;99.90;;;;;;5015044;28;20560;-78
2023/12/09 07:11:02;;;;;;;4.90;1.00;;;10.20;99.90;;;;;;5037944;28;20037;-79
2023/12/09 07:13:28;;;;;;;3.42;0.93;;;10.20;99.90;;;;;;5028032;28;20037;-79
2023/12/09 07:15:54;;;;;;;9.27;1.50;;;10.20;99.90;;;;;;5034061;28;20029;-78
2023/12/09 07:18:20;;;;;;;2.40;1.17;;;10.20;99.90;;;;;;5024720;28;20116;-80
2023/12/09 07:20:45;;;;;;;8.40;1.77;;;10.20;99.90;;;;;;5044015;28;20522;-79
2023/12/09 07:23:11;;;;;;;13.77;1.25;;;10.20;99.90;;;;;;5041946;28;20500;-79
2023/12/09 07:25:38;;;;;;;4.20;1.10;;;10.20;99.90;;;;;;5024539;28;20079;-78
2023/12/09 07:28:04;;;;;;;2.55;0.88;;;10.20;99.90;;;;;;5034155;28;20033;-77
2023/12/09 07:30:30;;;;;;;6.00;1.15;;;10.20;99.90;;;;;;5021350;28;20128;-79
2023/12/09 07:32:55;;;;;;;3.25;1.58;;;10.20;99.90;;;;;;5029054;28;20679;-79
2023/12/09 07:35:21;;;;;;;3.53;0.85;;;10.20;99.90;;;;;;5017743;28;20045;-78
2023/12/09 07:37:46;;;;;;;10.27;0.88;;;10.20;99.90;;;;;;5028953;28;20037;-77
2023/12/09 07:40:12;;;;;;;8.68;1.27;;;10.20;99.90;;;;;;5020542;28;20033;-77
2023/12/09 07:42:38;;;;;;;2.30;0.90;;;10.20;99.90;;;;;;5031165;28;20042;-78
2023/12/09 07:45:05;;;;;;;1.58;0.30;;;10.20;99.90;;;;;;5022098;28;20080;-78
2023/12/09 07:47:30;;;;;;;3.85;0.85;;;10.20;99.90;;;;;;5027832;28;20045;-78
2023/12/09 07:49:56;;;;;;;13.18;1.98;;;10.20;99.90;;;;;;5019504;28;20041;-77
2023/12/09 07:52:22;;;;;;;3.35;0.90;;;10.20;99.90;;;;;;5022587;28;20033;-77
2023/12/09 07:54:47;;;;;;;18.00;2.80;;;10.20;99.90;;;;;;5018467;28;20565;-77
2023/12/09 07:57:14;;;;;;;20.33;1.35;;;10.10;99.90;;;;;;5030709;28;20534;-76
2023/12/09 07:59:40;;;;;;;13.45;0.73;;;10.10;99.90;;;;;;5028909;28;20017;-77
2023/12/09 08:02:05;;;;;;;16.40;1.38;;;10.20;99.90;;;;;;5027136;28;20020;-76
2023/12/09 08:04:31;;;;;;;4.05;1.33;;;10.20;99.90;;;;;;5030208;28;20045;-76
2023/12/09 08:06:56;;;;;;;2.92;1.02;;;10.20;99.90;;;;;;5033627;28;20302;-77
2023/12/09 08:09:22;;;;;;;7.55;0.90;;;10.20;99.90;;;;;;5033784;28;20037;-76
2023/12/09 08:11:48;;;;;;;11.30;0.95;;;10.20;99.90;;;;;;5013744;28;20029;-76
2023/12/09 08:14:13;;;;;;;2.40;0.63;;;10.20;99.90;;;;;;5027499;28;20040;-75
2023/12/09 08:16:39;;;;;;;5.72;0.70;;;10.20;99.90;;;;;;5017024;28;20037;-76
2023/12/09 08:19:05;;;;;;;9.27;2.22;;;10.20;99.90;;;;;;5022387;28;20757;-76
2023/12/09 08:21:36;;;;;;;7.07;1.42;;;10.20;99.90;;;;;;5016233;28;20033;-76
2023/12/09 08:24:01;;;;;;;3.85;0.80;;;10.20;99.90;;;;;;5022670;28;20159;-80
2023/12/09 08:26:29;;;;;;;8.57;0.93;;;10.20;99.90;;;;;;5022463;28;20464;-80
2023/12/09 08:28:55;;;;;;;2.38;1.05;;;10.20;99.90;;;;;;5034727;28;20052;-80
2023/12/09 08:31:21;;;;;;;2.60;0.47;;;10.20;99.90;;;;;;5026314;28;20065;-82
2023/12/09 08:33:46;;;;;;;8.65;0.93;;;10.30;99.90;;;;;;5025243;28;20145;-79
2023/12/09 08:36:12;;;;;;;4.18;0.85;;;10.20;99.90;;;;;;5021356;28;20040;-80
2023/12/09 08:38:38;;;;;;;10.52;0.95;;;10.20;99.90;;;;;;5024459;28;20048;-81
2023/12/09 08:41:03;;;;;;;22.75;1.88;;;10.30;99.90;;;;;;5025897;28;20119;-81
2023/12/09 08:43:29;;;;;;;11.10;1.15;;;10.30;99.90;;;;;;5048295;22;20114;-79
2023/12/09 08:45:55;;;;;;;2.97;0.77;;;10.40;99.90;;;;;;5026251;28;20082;-79
2023/12/09 08:48:20;;;;;;;4.25;0.75;;;10.50;99.90;;;;;;5023952;28;20037;-78
2023/12/09 08:50:46;;;;;;;4.30;0.63;;;10.40;99.90;;;;;;5028372;28;20071;-79
2023/12/09 08:53:12;;;;;;;2.60;0.70;;;10.50;99.90;;;;;;5015114;28;20029;-80
2023/12/09 08:55:38;;;;;;;9.98;1.90;;;10.40;99.90;;;;;;5028157;28;20068;-78
2023/12/09 08:58:03;;;;;;;6.57;0.60;;;10.50;99.90;;;;;;5010278;28;20125;-79
2023/12/09 09:00:30;;;;;;;5.20;0.60;;;10.50;99.90;;;;;;5023599;28;20290;-79
2023/12/09 09:02:56;;;;;;;5.28;1.15;;;10.60;99.90;;;;;;5016461;28;20057;-80
2023/12/09 09:05:22;;;;;;;5.00;1.75;;;10.60;99.90;;;;;;5025862;28;20033;-80
2023/12/09 09:07:48;;;;;;;8.55;1.45;;;10.60;99.90;;;;;;5013663;28;20032;-80
2023/12/09 09:10:15;;;;;;;6.43;2.20;;;10.60;99.90;;;;;;5025941;28;20035;-80
2023/12/09 09:12:40;;;;;;;2.17;0.75;;;10.60;99.90;;;;;;5007493;28;20150;-79
2023/12/09 09:15:07;;;;;;;15.48;1.67;;;10.60;99.90;;;;;;5028410;28;20119;-78
2023/12/09 09:17:34;;;;;;;7.65;1.85;;;10.60;99.90;;;;;;5020198;28;20029;-81
2023/12/09 09:20:00;;;;;;;10.43;1.17;;;10.60;99.90;;;;;;5027728;28;20025;-81
2023/12/09 09:22:26;;;;;;;8.98;1.55;;;10.60;99.90;;;;;;5020541;28;20048;-78
2023/12/09 09:24:51;;;;;;;13.13;0.90;;;10.70;99.90;;;;;;5025926;28;20497;-79
2023/12/09 09:27:17;;;;;;;18.95;1.35;;;10.70;99.90;;;;;;5028888;28;20528;-80
2023/12/09 09:29:43;;;;;;;9.70;2.25;;;10.70;99.90;;;;;;5022897;28;20034;-81
2023/12/09 09:32:09;;;;;;;8.30;1.85;;;10.80;99.90;;;;;;5023134;28;20037;-81
2023/12/09 09:34:35;;;;;;;8.30;1.70;;;10.80;99.90;;;;;;5018642;28;20509;-79
2023/12/09 09:37:00;;;;;;;2.25;1.10;;;10.90;99.90;;;;;;5028877;28;20069;-80
2023/12/09 09:39:26;;;;;;;12.18;1.23;;;11.00;99.90;;;;;;5010542;28;20040;-81
2023/12/09 09:42:31;;;;;;;7.05;0.73;;;11.00;99.90;;;;;;5033915;28;20753;-82
2023/12/09 09:45:21;;;;;;;5.65;1.65;;;11.10;99.90;;;;;;5012388;28;20545;-83
2023/12/09 09:47:47;;;;;;;;;;;11.10;99.90;;;;;;5028155;28;20029;-83
2023/12/09 09:50:17;;;;;;;17.48;2.13;;;11.20;99.90;;;;;;5017267;28;20006;-84
2023/12/09 09:52:43;;;;;;;2.65;0.98;;;11.30;99.90;;;;;;5024690;28;20072;-84
2023/12/09 09:55:09;;;;;;;5.82;1.05;;;11.30;99.90;;;;;;5018412;28;20025;-84
2023/12/09 09:57:35;;;;;;;9.15;1.48;;;11.40;99.90;;;;;;5027614;28;20266;-84
2023/12/09 10:00:01;;;;;;;0.45;0.40;;;11.50;99.90;;;;;;5013055;28;20444;-83
2023/12/09 10:02:27;;;;;;;4.72;0.57;;;11.60;99.90;;;;;;5028082;28;20120;-84
2023/12/09 10:04:53;;;;;;;0.82;0.80;;;11.70;99.90;;;;;;5013533;28;20152;-84
2023/12/09 10:07:21;;;;;;;12.18;1.27;;;11.90;99.90;;;;;;5023888;28;20037;-84
2023/12/09 10:09:47;;;;;;;2.92;0.45;;;12.00;99.90;;;;;;5017181;28;20079;-83
2023/12/09 10:12:12;;;;;;;4.00;1.17;;;12.00;99.90;;;;;;5021172;28;20175;-82
2023/12/09 10:14:38;;;;;;;8.57;2.08;;;12.10;99.90;;;;;;5013142;28;20400;-82
2023/12/09 10:17:05;;;;;;;9.50;0.50;;;12.10;99.90;;;;;;5027934;28;20025;-82
2023/12/09 10:19:34;;;;;;;2.40;0.77;;;12.20;99.90;;;;;;5013422;28;20485;-83
2023/12/09 10:22:00;;;;;;;2.42;1.20;;;12.30;99.90;;;;;;5030408;28;20417;-83
2023/12/09 10:24:25;;;;;;;1.95;1.45;;;12.40;99.90;;;;;;5019744;28;20037;-83
2023/12/09 10:26:51;;;;;;;4.25;1.13;;;12.50;99.90;;;;;;5021778;28;20024;-83
2023/12/09 10:29:17;;;;;;;3.58;1.17;;;12.50;99.90;;;;;;5024849;28;20485;-83
2023/12/09 10:31:42;;;;;;;2.65;0.50;;;12.50;99.90;;;;;;5017117;28;20111;-83
2023/12/09 10:34:12;;;;;;;7.13;2.45;;;12.50;99.90;;;;;;5027533;28;20025;-83
2023/12/09 10:36:37;;;;;;;;;;;12.50;99.90;;;;;;5017335;28;20172;-82
2023/12/09 10:39:05;;;;;;;1.17;0.40;;;12.50;99.90;;;;;;5022199;28;19938;-83
2023/12/09 10:41:30;;;;;;;8.00;1.17;;;12.60;99.90;;;;;;5016588;28;20034;-81
2023/12/09 10:43:56;;;;;;;6.72;1.30;;;12.60;99.90;;;;;;5030407;28;20057;-81
2023/12/09 10:46:22;;;;;;;4.40;0.63;;;12.60;99.90;;;;;;5009940;28;20029;-82
2023/12/09 10:48:48;;;;;;;9.70;1.25;;;12.50;99.90;;;;;;5027227;28;20055;-81
2023/12/09 10:51:13;;;;;;;7.53;1.48;;;12.60;99.90;;;;;;5015759;28;20036;-81
2023/12/09 10:53:40;;;;;;;9.57;1.25;;;12.50;99.90;;;;;;5023491;28;20118;-81
2023/12/09 10:56:07;;;;;;;3.20;0.30;;;12.50;99.90;;;;;;5016996;28;20028;-81
2023/12/09 10:58:36;;;;;;;10.05;1.38;;;12.50;99.90;;;;;;5022781;28;20029;-80
2023/12/09 11:01:02;;;;;;;13.77;1.63;;;12.50;99.90;;;;;;5013318;28;20120;-82
2023/12/09 11:03:29;;;;;;;8.48;1.08;;;12.50;99.90;;;;;;5030558;28;20046;-81
2023/12/09 11:05:58;;;;;;;7.95;1.15;;;12.60;99.90;;;;;;5010076;28;20040;-81
2023/12/09 11:08:28;;;;;;;10.40;1.27;;;12.60;99.90;;;;;;5022968;28;20108;-80
2023/12/09 11:10:55;;;;;;;4.30;1.08;;;12.60;99.90;;;;;;5018415;28;20072;-81
2023/12/09 11:13:24;;;;;;;3.03;1.02;;;12.60;99.90;;;;;;5021469;28;20064;-82
2023/12/09 11:16:10;;;;;;;11.98;1.35;;;12.70;99.90;;;;;;5028236;28;20147;-81
2023/12/09 11:18:36;;;;;;;10.57;1.27;;;12.70;99.90;;;;;;5024579;28;20494;-82
2023/12/09 11:21:03;;;;;;;7.03;1.20;;;12.70;99.90;;;;;;5025466;28;21172;-81
2023/12/09 11:23:30;;;;;;;10.30;1.45;;;12.70;99.90;;;;;;5016504;28;20556;-82
2023/12/09 11:25:56;;;;;;;7.35;0.73;;;12.70;99.90;;;;;;5023994;28;20498;-80
2023/12/09 11:28:22;;;;;;;20.95;2.90;;;12.70;99.90;;;;;;5014538;28;20045;-81
2023/12/09 11:30:48;;;;;;;4.43;0.88;;;12.80;99.90;;;;;;5030609;28;20033;-82
2023/12/09 11:33:13;;;;;;;4.93;2.00;;;12.80;99.90;;;;;;5017011;28;20044;-80
2023/12/09 11:35:41;;;;;;;9.85;1.58;;;12.70;99.90;;;;;;5029541;28;20084;-81
2023/12/09 11:38:09;;;;;;;4.88;1.33;;;12.70;99.90;;;;;;5013870;28;20040;-81
2023/12/09 11:40:36;;;;;;;5.53;1.02;;;12.80;99.90;;;;;;5022615;28;20065;-81
2023/12/09 11:43:03;;;;;;;9.32;1.50;;;12.80;99.90;;;;;;5013813;28;20049;-82
2023/12/09 11:45:29;;;;;;;12.63;0.82;;;12.90;99.90;;;;;;5026929;28;20094;-82
2023/12/09 11:47:55;;;;;;;7.70;1.52;;;13.00;99.90;;;;;;5020702;28;20164;-81
2023/12/09 11:50:21;;;;;;;13.65;1.05;;;13.20;99.90;;;;;;5035680;28;20025;-81
2023/12/09 11:52:48;;;;;;;3.58;0.77;;;13.20;99.90;;;;;;5017935;28;20082;-81
2023/12/09 11:55:16;;;;;;;7.03;1.35;;;13.30;99.90;;;;;;5029908;28;20048;-81
2023/12/09 11:57:42;;;;;;;16.55;1.30;;;13.50;99.90;;;;;;5023323;28;20572;-81
2023/12/09 12:00:11;;;;;;;6.40;1.02;;;13.60;99.90;;;;;;5039850;28;20040;-80
2023/12/09 12:02:38;;;;;;;10.27;0.60;;;13.60;99.90;;;;;;5038629;28;21002;-81
2023/12/09 12:05:06;;;;;;;2.83;1.15;;;13.60;99.90;;;;;;5049143;28;20496;-81
2023/12/09 12:07:32;;;;;;;5.00;0.82;;;13.70;99.90;;;;;;5036563;28;20131;-81
2023/12/09 12:09:57;;;;;;;10.07;1.00;;;13.90;99.90;;;;;;5030010;28;20089;-81
2023/12/09 12:12:23;;;;;;;7.70;1.35;;;14.10;99.90;;;;;;5035402;28;20037;-80
2023/12/09 12:14:50;;;;;;;7.60;0.90;;;14.30;99.90;;;;;;5025803;28;20037;-81
2023/12/09 12:17:17;;;;;;;7.13;2.08;;;14.50;99.90;;;;;;5044827;28;20041;-80
2023/12/09 12:19:44;;;;;;;2.58;0.70;;;14.60;99.90;;;;;;5028245;28;20302;-80
2023/12/09 12:22:09;;;;;;;8.27;1.58;;;14.70;99.90;;;;;;5046979;28;20049;-79
2023/12/09 12:24:44;;;;;;;7.20;0.98;;;14.70;99.90;;;;;;5030148;28;20591;-80
2023/12/09 12:27:09;;;;;;;6.10;0.80;;;14.60;99.90;;;;;;5031365;28;20029;-80
2023/12/09 12:29:39;;;;;;;7.68;1.80;;;14.60;99.90;;;;;;5026329;28;20040;-82
2023/12/09 12:32:07;;;;;;;6.15;0.98;;;14.50;99.90;;;;;;5036300;28;20044;-81
2023/12/09 12:34:33;;;;;;;6.70;1.33;;;14.60;99.90;;;;;;5025936;28;20485;-80
2023/12/09 12:36:59;;;;;;;3.92;1.20;;;14.50;99.90;;;;;;5045252;28;20032;-81
2023/12/09 12:39:25;;;;;;;8.48;1.20;;;14.50;99.90;;;;;;5030958;28;20045;-81
2023/12/09 12:41:51;;;;;;;10.13;1.55;;;14.50;99.90;;;;;;5041626;28;20037;-80
2023/12/09 12:44:16;;;;;;;4.18;2.03;;;14.60;99.90;;;;;;5034180;28;20066;-80